createdAt,value
2023-04-02T00:02:33.146Z,101260.09
2023-04-02T00:05:22.386Z,101266.19
2023-04-02T00:07:51.623Z,101261.75
2023-04-02T00:10:28.917Z,101274.84
2023-04-02T00:13:10.967Z,101274.81
2023-04-02T00:15:43.846Z,101283.47
2023-04-02T00:18:16.813Z,101285.16
2023-04-02T00:20:47.872Z,101284.22
2023-04-02T00:23:15.489Z,101287.56
2023-04-02T00:25:45.367Z,101292.66
2023-04-02T00:28:18.725Z,101286.50
2023-04-02T00:30:55.239Z,101301.31
2023-04-02T00:33:25.901Z,101298.66
2023-04-02T00:35:54.826Z,101311.63
2023-04-02T00:38:31.844Z,101322.91
2023-04-02T00:41:07.111Z,101322.00
2023-04-02T00:43:39.642Z,101332.31
2023-04-02T00:46:14.999Z,101330.53
2023-04-02T00:48:50.554Z,101332.22
2023-04-02T00:51:26.056Z,101336.53
2023-04-02T00:53:56.057Z,101343.47
2023-04-02T00:56:28.850Z,101345.22
2023-04-02T00:58:57.081Z,101347.84
2023-04-02T01:01:27.343Z,101352.06
2023-04-02T01:03:58.119Z,101355.50
2023-04-02T01:06:28.948Z,101361.66
2023-04-02T01:09:03.258Z,101371.09
2023-04-02T01:11:41.775Z,101366.66
2023-04-02T01:14:45.447Z,101376.38
2023-04-02T01:17:42.824Z,101367.56
2023-04-02T01:20:38.882Z,101374.44
2023-04-02T01:23:14.764Z,101384.88
2023-04-02T01:25:47.329Z,101399.63
2023-04-02T01:28:27.230Z,101389.06
2023-04-02T01:30:56.836Z,101393.44
2023-04-02T01:33:28.157Z,101394.41
2023-04-02T01:36:06.949Z,101406.59
2023-04-02T01:38:45.076Z,101409.13
2023-04-02T01:41:27.002Z,101411.59
2023-04-02T01:44:06.299Z,101418.47
2023-04-02T01:46:35.232Z,101421.03
2023-04-02T01:49:09.860Z,101424.44
2023-04-02T01:51:42.591Z,101432.19
2023-04-02T01:54:10.372Z,101438.13
2023-04-02T01:56:36.868Z,101437.97
2023-04-02T01:59:06.929Z,101448.41
2023-04-02T02:01:39.164Z,101448.41
2023-04-02T02:04:06.351Z,101449.47
2023-04-02T02:06:33.232Z,101458.84
2023-04-02T02:09:04.540Z,101462.16
2023-04-02T02:11:33.586Z,101463.84
2023-04-02T02:14:02.119Z,101473.31
2023-04-02T02:16:31.745Z,101459.78
2023-04-02T02:19:01.583Z,101478.97
2023-04-02T02:21:42.189Z,101487.47
2023-04-02T02:24:31.688Z,101488.25
2023-04-02T02:27:13.282Z,101486.50
2023-04-02T02:29:42.777Z,101500.44
2023-04-02T02:32:12.910Z,101504.69
2023-04-02T02:34:48.198Z,101504.53
2023-04-02T02:37:22.376Z,101507.09
2023-04-02T02:39:53.726Z,101515.72
2023-04-02T02:42:27.232Z,101525.25
2023-04-02T02:44:56.558Z,101533.84
2023-04-02T02:47:28.148Z,101532.84
2023-04-02T02:49:59.282Z,101538.88
2023-04-02T02:52:31.595Z,101539.47
2023-04-02T02:55:00.303Z,101552.63
2023-04-02T02:57:33.948Z,101552.53
2023-04-02T03:00:05.672Z,101557.75
2023-04-02T03:02:36.107Z,101557.56
2023-04-02T03:05:03.012Z,101563.63
2023-04-02T03:07:31.035Z,101565.22
2023-04-02T03:10:29.431Z,101566.91
2023-04-02T03:13:10.240Z,101578.13
2023-04-02T03:16:03.726Z,101578.00
2023-04-02T03:18:55.645Z,101592.00
2023-04-02T03:21:45.960Z,101598.75
2023-04-02T03:24:23.522Z,101615.38
2023-04-02T03:26:57.883Z,101609.19
2023-04-02T03:29:31.296Z,101624.84
2023-04-02T03:32:12.165Z,101627.56
2023-04-02T03:34:44.358Z,101628.41
2023-04-02T03:37:13.765Z,101632.56
2023-04-02T03:39:56.892Z,101638.53
2023-04-02T03:42:25.979Z,101647.06
2023-04-02T03:44:57.644Z,101654.88
2023-04-02T03:47:51.294Z,101655.66
2023-04-02T03:50:33.997Z,101662.22
2023-04-02T03:53:02.085Z,101670.03
2023-04-02T03:55:37.795Z,101677.00
2023-04-02T03:58:38.063Z,101682.03
2023-04-02T04:01:08.497Z,101695.56
2023-04-02T04:03:49.637Z,101698.94
2023-04-02T04:06:29.019Z,101698.88
2023-04-02T04:09:11.263Z,101711.13
2023-04-02T04:11:44.173Z,101706.75
2023-04-02T04:14:18.202Z,101704.91
2023-04-02T04:16:59.884Z,101715.34
2023-04-02T04:19:41.876Z,101713.44
2023-04-02T04:22:31.784Z,101731.78
2023-04-02T04:25:00.503Z,101736.16
2023-04-02T04:27:57.191Z,101741.44
2023-04-02T04:30:41.948Z,101751.88
2023-04-02T04:33:22.325Z,101751.91
2023-04-02T04:35:57.698Z,101754.59
2023-04-02T04:38:39.117Z,101754.41
2023-04-02T04:41:13.088Z,101770.75
2023-04-02T04:43:48.330Z,101781.75
2023-04-02T04:46:26.072Z,101778.69
2023-04-02T04:49:37.372Z,101796.19
2023-04-02T04:52:15.346Z,101795.81
2023-04-02T04:54:42.396Z,101802.44
2023-04-02T04:57:23.458Z,101811.97
2023-04-02T04:59:59.045Z,101816.25
2023-04-02T05:02:38.416Z,101819.78
2023-04-02T05:05:18.107Z,101838.63
2023-04-02T05:07:57.056Z,101850.28
2023-04-02T05:11:08.064Z,101849.94
2023-04-02T05:13:44.407Z,101852.00
2023-04-02T05:16:16.455Z,101858.91
2023-04-02T05:18:58.133Z,101860.72
2023-04-02T05:21:44.715Z,101867.19
2023-04-02T05:24:37.852Z,101865.59
2023-04-02T05:27:19.463Z,101871.28
2023-04-02T05:29:50.918Z,101880.44
2023-04-02T05:32:23.237Z,101878.56
2023-04-02T05:34:54.948Z,101888.84
2023-04-02T05:37:24.431Z,101892.03
2023-04-02T05:39:55.421Z,101901.63
2023-04-02T05:42:24.899Z,101906.09
2023-04-02T05:45:31.355Z,101919.09
2023-04-02T05:48:01.864Z,101919.75
2023-04-02T05:50:43.005Z,101931.00
2023-04-02T05:53:18.014Z,101936.06
2023-04-02T05:56:31.967Z,101948.25
2023-04-02T05:59:12.654Z,101947.44
2023-04-02T06:01:45.628Z,101958.75
2023-04-02T06:04:35.646Z,101959.63
2023-04-02T06:07:12.180Z,101971.91
2023-04-02T06:09:46.738Z,101978.69
2023-04-02T06:12:24.640Z,101984.78
2023-04-02T06:14:51.067Z,102002.16
2023-04-02T06:17:19.332Z,102002.91
2023-04-02T06:19:47.716Z,102008.13
2023-04-02T06:22:37.876Z,102012.56
2023-04-02T06:25:20.512Z,102016.75
2023-04-02T06:27:49.195Z,102027.91
2023-04-02T06:30:21.305Z,102028.69
2023-04-02T06:32:47.776Z,102027.56
2023-04-02T06:35:15.857Z,102043.19
2023-04-02T06:37:46.553Z,102040.41
2023-04-02T06:40:45.213Z,102055.41
2023-04-02T06:43:23.852Z,102055.31
2023-04-02T06:45:53.229Z,102051.66
2023-04-02T06:48:20.925Z,102066.22
2023-04-02T06:50:57.188Z,102073.13
2023-04-02T06:53:28.073Z,102083.47
2023-04-02T06:56:03.800Z,102077.13
2023-04-02T06:58:30.537Z,102088.41
2023-04-02T07:00:57.093Z,102096.38
2023-04-02T07:03:27.304Z,102101.84
2023-04-02T07:05:54.538Z,102101.75
2023-04-02T07:08:21.465Z,102106.22
2023-04-02T07:10:47.869Z,102109.88
2023-04-02T07:13:17.456Z,102118.75
2023-04-02T07:15:50.253Z,102123.78
2023-04-02T07:18:27.367Z,102125.66
2023-04-02T07:20:54.498Z,102133.47
2023-04-02T07:23:23.071Z,102137.22
2023-04-02T07:25:51.440Z,102150.28
2023-04-02T07:28:18.030Z,102158.19
2023-04-02T07:30:45.460Z,102167.72
2023-04-02T07:33:21.726Z,102163.56
2023-04-02T07:35:49.196Z,102166.25
2023-04-02T07:38:15.878Z,102180.38
2023-04-02T07:40:43.426Z,102181.94
2023-04-02T07:43:10.543Z,102175.69
2023-04-02T07:45:37.457Z,102178.19
2023-04-02T07:48:06.566Z,102180.00
2023-04-02T07:50:33.975Z,102189.31
2023-04-02T07:53:01.053Z,102197.13
2023-04-02T07:55:27.785Z,102190.94
2023-04-02T07:57:56.800Z,102189.16
2023-04-02T08:00:24.792Z,102198.59
2023-04-02T08:02:52.005Z,102205.59
2023-04-02T08:05:18.628Z,102214.28
2023-04-02T08:07:53.340Z,102211.44
2023-04-02T08:10:23.713Z,102208.00
2023-04-02T08:12:50.452Z,102220.94
2023-04-02T08:15:17.132Z,102217.53
2023-04-02T08:17:43.680Z,102230.47
2023-04-02T08:20:22.361Z,102238.19
2023-04-02T08:22:49.912Z,102243.47
2023-04-02T08:25:17.003Z,102246.16
2023-04-02T08:27:47.158Z,102245.19
2023-04-02T08:30:14.719Z,102254.78
2023-04-02T08:32:41.521Z,102247.31
2023-04-02T08:35:09.908Z,102261.00
2023-04-02T08:37:36.697Z,102258.97
2023-04-02T08:40:04.114Z,102279.34
2023-04-02T08:42:33.167Z,102264.94
2023-04-02T08:45:24.236Z,102256.06
2023-04-02T08:47:55.950Z,102269.66
2023-04-02T08:50:33.096Z,102273.31
2023-04-02T08:53:02.361Z,102272.84
2023-04-02T08:55:36.172Z,102277.56
2023-04-02T08:58:20.750Z,102291.81
2023-04-02T09:00:53.562Z,102291.56
2023-04-02T09:03:25.920Z,102302.16
2023-04-02T09:05:53.610Z,102294.78
2023-04-02T09:08:27.771Z,102295.25
2023-04-02T09:11:10.842Z,102300.22
2023-04-02T09:13:42.665Z,102306.50
2023-04-02T09:16:15.842Z,102303.25
2023-04-02T09:18:44.260Z,102303.94
2023-04-02T09:21:52.943Z,102303.34
2023-04-02T09:24:19.632Z,102303.56
2023-04-02T09:26:46.381Z,102313.63
2023-04-02T09:29:13.286Z,102313.91
2023-04-02T09:31:53.725Z,102309.69
2023-04-02T09:34:28.662Z,102328.63
2023-04-02T09:36:55.981Z,102320.72
2023-04-02T09:39:28.058Z,102323.91
2023-04-02T09:42:05.160Z,102330.72
2023-04-02T09:44:32.990Z,102332.97
2023-04-02T09:47:05.755Z,102334.16
2023-04-02T09:49:37.850Z,102328.56
2023-04-02T09:52:15.681Z,102338.34
2023-04-02T09:54:42.440Z,102349.50
2023-04-02T09:57:24.710Z,102348.47
2023-04-02T10:00:10.425Z,102350.16
2023-04-02T10:02:46.823Z,102354.06
2023-04-02T10:05:30.164Z,102366.31
2023-04-02T10:08:09.681Z,102369.34
2023-04-02T10:10:41.898Z,102366.78
2023-04-02T10:13:28.714Z,102372.84
2023-04-02T10:16:03.925Z,102362.69
2023-04-02T10:18:40.023Z,102373.56
2023-04-02T10:21:10.372Z,102377.34
2023-04-02T10:23:36.782Z,102372.41
2023-04-02T10:26:20.500Z,102385.72
2023-04-02T10:28:49.826Z,102400.13
2023-04-02T10:31:25.413Z,102390.84
2023-04-02T10:34:00.760Z,102395.97
2023-04-02T10:36:55.720Z,102402.88
2023-04-02T10:39:32.458Z,102398.84
2023-04-02T10:42:24.203Z,102400.31
2023-04-02T10:45:18.418Z,102399.41
2023-04-02T10:48:06.339Z,102406.41
2023-04-02T10:50:50.019Z,102412.47
2023-04-02T10:53:21.971Z,102407.19
2023-04-02T10:55:53.942Z,102407.34
2023-04-02T10:58:31.526Z,102414.78
2023-04-02T11:01:17.592Z,102402.25
2023-04-02T11:03:54.867Z,102410.50
2023-04-02T11:06:43.656Z,102417.66
2023-04-02T11:09:22.217Z,102415.13
2023-04-02T11:11:55.745Z,102421.00
2023-04-02T11:14:26.318Z,102409.00
2023-04-02T11:16:54.436Z,102414.06
2023-04-02T11:19:22.557Z,102425.00
2023-04-02T11:22:17.745Z,102430.59
2023-04-02T11:24:46.449Z,102432.47
2023-04-02T11:27:17.403Z,102419.88
2023-04-02T11:30:06.016Z,102440.69
2023-04-02T11:32:44.049Z,102452.44
2023-04-02T11:35:46.039Z,102442.88
2023-04-02T11:38:12.434Z,102452.63
2023-04-02T11:40:56.013Z,102452.03
2023-04-02T11:43:48.318Z,102453.03
2023-04-02T11:46:26.840Z,102475.06
2023-04-02T11:48:55.101Z,102466.06
2023-04-02T11:51:22.531Z,102479.38
2023-04-02T11:53:57.301Z,102470.56
2023-04-02T11:56:42.539Z,102473.91
2023-04-02T11:59:08.980Z,102468.75
2023-04-02T12:01:51.817Z,102483.75
2023-04-02T12:04:52.474Z,102496.19
2023-04-02T12:07:58.046Z,102489.03
2023-04-02T12:10:32.324Z,102482.31
2023-04-02T12:12:58.845Z,102479.75
2023-04-02T12:15:43.852Z,102483.31
2023-04-02T12:18:15.679Z,102480.59
2023-04-02T12:20:47.471Z,102492.91
2023-04-02T12:23:20.736Z,102481.53
2023-04-02T12:25:56.586Z,102486.81
2023-04-02T12:28:31.197Z,102486.81
2023-04-02T12:31:09.672Z,102496.69
2023-04-02T12:33:38.609Z,102499.50
2023-04-02T12:36:27.367Z,102494.88
2023-04-02T12:38:59.918Z,102499.47
2023-04-02T12:41:31.149Z,102495.97
2023-04-02T12:44:02.025Z,102501.94
2023-04-02T12:46:30.533Z,102500.09
2023-04-02T12:49:35.222Z,102505.38
2023-04-02T12:52:05.566Z,102495.69
2023-04-02T12:54:38.171Z,102503.78
2023-04-02T12:57:26.676Z,102509.34
2023-04-02T12:59:54.677Z,102514.59
2023-04-02T13:02:26.605Z,102502.31
2023-04-02T13:04:54.707Z,102518.22
2023-04-02T13:07:25.125Z,102513.72
2023-04-02T13:09:53.665Z,102517.16
2023-04-02T13:12:34.018Z,102512.94
2023-04-02T13:15:03.773Z,102520.06
2023-04-02T13:18:19.458Z,102520.13
2023-04-02T13:21:03.144Z,102513.75
2023-04-02T13:23:29.596Z,102510.28
2023-04-02T13:26:18.519Z,102510.50
2023-04-02T13:29:21.298Z,102520.22
2023-04-02T13:31:48.370Z,102523.72
2023-04-02T13:34:16.918Z,102526.31
2023-04-02T13:36:43.774Z,102514.66
2023-04-02T13:39:10.477Z,102524.34
2023-04-02T13:41:51.148Z,102526.94
2023-04-02T13:44:21.614Z,102517.91
2023-04-02T13:46:48.142Z,102524.06
2023-04-02T13:49:14.842Z,102529.09
2023-04-02T13:51:47.189Z,102533.34
2023-04-02T13:54:23.317Z,102544.00
2023-04-02T13:56:49.809Z,102543.09
2023-04-02T13:59:16.559Z,102542.38
2023-04-02T14:01:45.311Z,102549.66
2023-04-02T14:04:17.562Z,102556.81
2023-04-02T14:07:04.141Z,102549.66
2023-04-02T14:09:44.917Z,102549.56
2023-04-02T14:12:50.469Z,102543.25
2023-04-02T14:15:30.498Z,102547.75
2023-04-02T14:18:10.744Z,102546.63
2023-04-02T14:21:09.584Z,102559.84
2023-04-02T14:24:04.034Z,102551.00
2023-04-02T14:26:39.773Z,102553.44
2023-04-02T14:29:29.251Z,102556.81
2023-04-02T14:32:04.940Z,102557.44
2023-04-02T14:34:57.390Z,102569.63
2023-04-02T14:37:52.461Z,102569.31
2023-04-02T14:40:31.615Z,102570.91
2023-04-02T14:43:03.435Z,102567.22
2023-04-02T14:45:48.967Z,102575.91
2023-04-02T14:48:42.179Z,102580.13
2023-04-02T14:51:14.417Z,102572.25
2023-04-02T14:53:49.205Z,102580.88
2023-04-02T14:56:17.617Z,102586.94
2023-04-02T14:58:48.641Z,102590.38
2023-04-02T15:01:25.499Z,102583.06
2023-04-02T15:04:02.545Z,102595.91
2023-04-02T15:06:52.509Z,102581.59
2023-04-02T15:09:38.552Z,102591.03
2023-04-02T15:12:28.808Z,102600.47
2023-04-02T15:15:04.223Z,102596.91
2023-04-02T15:17:32.132Z,102596.00
2023-04-02T15:20:14.009Z,102597.72
2023-04-02T15:23:03.763Z,102593.16
2023-04-02T15:25:47.918Z,102598.53
2023-04-02T15:28:30.096Z,102598.28
2023-04-02T15:30:59.667Z,102597.28
2023-04-02T15:33:38.214Z,102591.88
2023-04-02T15:36:29.586Z,102604.22
2023-04-02T15:39:13.157Z,102602.19
2023-04-02T15:42:09.180Z,102609.16
2023-04-02T15:44:43.981Z,102599.25
2023-04-02T15:47:26.999Z,102608.00
2023-04-02T15:50:21.274Z,102605.34
2023-04-02T15:53:09.557Z,102606.06
2023-04-02T15:55:49.235Z,102612.00
2023-04-02T15:58:15.810Z,102597.00
2023-04-02T16:01:11.713Z,102615.44
2023-04-02T16:03:56.842Z,102617.06
2023-04-02T16:06:50.975Z,102616.16
2023-04-02T16:09:26.872Z,102618.75
2023-04-02T16:12:01.264Z,102622.19
2023-04-02T16:14:31.445Z,102623.91
2023-04-02T16:17:17.684Z,102629.06
2023-04-02T16:19:52.918Z,102641.19
2023-04-02T16:22:30.154Z,102633.22
2023-04-02T16:25:01.735Z,102634.03
2023-04-02T16:27:33.248Z,102637.44
2023-04-02T16:30:18.229Z,102649.66
2023-04-02T16:32:56.775Z,102645.94
2023-04-02T16:35:50.840Z,102658.19
2023-04-02T16:38:44.001Z,102660.75
2023-04-02T16:41:22.588Z,102658.13
2023-04-02T16:43:59.015Z,102655.56
2023-04-02T16:46:59.745Z,102660.81
2023-04-02T16:49:44.738Z,102677.44
2023-04-02T16:52:44.035Z,102674.72
2023-04-02T16:55:48.317Z,102676.31
2023-04-02T16:58:27.112Z,102676.13
2023-04-02T17:01:06.229Z,102686.63
2023-04-02T17:04:14.465Z,102694.50
2023-04-02T17:06:53.075Z,102706.63
2023-04-02T17:09:35.478Z,102703.03
2023-04-02T17:12:19.342Z,102708.97
2023-04-02T17:14:53.031Z,102708.81
2023-04-02T17:17:21.065Z,102713.28
2023-04-02T17:19:51.320Z,102718.66
2023-04-02T17:22:21.322Z,102724.88
2023-04-02T17:25:07.480Z,102713.41
2023-04-02T17:27:39.561Z,102717.69
2023-04-02T17:30:21.919Z,102725.41
2023-04-02T17:32:48.425Z,102728.69
2023-04-02T17:35:26.610Z,102734.75
2023-04-02T17:38:22.177Z,102733.81
2023-04-02T17:41:04.372Z,102738.78
2023-04-02T17:44:02.813Z,102740.34
2023-04-02T17:46:38.621Z,102742.53
2023-04-02T17:49:30.310Z,102751.09
2023-04-02T17:52:19.065Z,102765.56
2023-04-02T17:55:03.794Z,102774.19
2023-04-02T17:57:49.101Z,102763.44
2023-04-02T18:00:25.467Z,102767.50
2023-04-02T18:03:13.657Z,102775.25
2023-04-02T18:05:50.654Z,102780.34
2023-04-02T18:08:37.422Z,102780.16
2023-04-02T18:11:26.213Z,102783.34
2023-04-02T18:13:56.638Z,102788.38
2023-04-02T18:16:36.163Z,102788.22
2023-04-02T18:19:26.033Z,102795.41
2023-04-02T18:21:58.356Z,102790.06
2023-04-02T18:24:42.693Z,102792.59
2023-04-02T18:27:19.529Z,102806.59
2023-04-02T18:29:53.040Z,102807.34
2023-04-02T18:32:41.551Z,102815.16
2023-04-02T18:35:10.733Z,102820.19
2023-04-02T18:38:03.918Z,102821.94
2023-04-02T18:40:48.815Z,102830.47
2023-04-02T18:43:27.538Z,102831.25
2023-04-02T18:46:25.242Z,102831.94
2023-04-02T18:49:12.974Z,102837.00
2023-04-02T18:51:40.279Z,102846.56
2023-04-02T18:54:25.329Z,102849.81
2023-04-02T18:56:51.930Z,102857.66
2023-04-02T18:59:42.185Z,102856.63
2023-04-02T19:02:27.627Z,102868.03
2023-04-02T19:05:02.651Z,102871.34
2023-04-02T19:07:31.372Z,102873.78
2023-04-02T19:10:08.855Z,102879.00
2023-04-02T19:12:35.584Z,102878.88
2023-04-02T19:15:12.639Z,102887.50
2023-04-02T19:17:44.184Z,102894.25
2023-04-02T19:20:10.671Z,102896.59
2023-04-02T19:23:32.586Z,102901.66
2023-04-02T19:26:06.981Z,102900.56
2023-04-02T19:28:52.800Z,102911.69
2023-04-02T19:31:33.588Z,102914.13
2023-04-02T19:34:11.784Z,102919.16
2023-04-02T19:37:13.951Z,102916.19
2023-04-02T19:40:03.262Z,102921.25
2023-04-02T19:42:42.171Z,102923.69
2023-04-02T19:45:23.405Z,102919.16
2023-04-02T19:47:50.191Z,102923.31
2023-04-02T19:50:16.655Z,102924.81
2023-04-02T19:52:43.129Z,102930.72
2023-04-02T19:55:09.713Z,102929.78
2023-04-02T19:57:36.338Z,102922.53
2023-04-02T20:00:06.311Z,102928.72
2023-04-02T20:02:33.494Z,102933.84
2023-04-02T20:04:59.959Z,102939.03
2023-04-02T20:07:26.328Z,102945.69
2023-04-02T20:09:52.774Z,102941.19
2023-04-02T20:12:19.594Z,102941.06
2023-04-02T20:14:48.669Z,102943.53
2023-04-02T20:17:15.477Z,102935.44
2023-04-02T20:19:41.957Z,102950.22
2023-04-02T20:22:08.953Z,102947.53
2023-04-02T20:24:35.387Z,102957.03
2023-04-02T20:27:01.872Z,102962.94
2023-04-02T20:29:30.592Z,102961.16
2023-04-02T20:31:57.088Z,102969.78
2023-04-02T20:34:23.744Z,102980.16
2023-04-02T20:36:50.286Z,102975.69
2023-04-02T20:39:20.300Z,102982.59
2023-04-02T20:41:47.210Z,102976.38
2023-04-02T20:44:13.931Z,102977.03
2023-04-02T20:46:40.996Z,102989.97
2023-04-02T20:49:08.521Z,102990.56
2023-04-02T20:51:34.925Z,102986.91
2023-04-02T20:54:01.777Z,102992.06
2023-04-02T20:56:28.199Z,102990.94
2023-04-02T20:58:54.792Z,102999.63
2023-04-02T21:01:29.912Z,102995.88
2023-04-02T21:03:57.534Z,103000.97
2023-04-02T21:06:26.213Z,103005.22
2023-04-02T21:08:52.789Z,103004.97
2023-04-02T21:11:19.958Z,103011.13
2023-04-02T21:13:46.332Z,103016.19
2023-04-02T21:16:14.124Z,103021.28
2023-04-02T21:18:40.648Z,103024.66
2023-04-02T21:21:07.210Z,103028.75
2023-04-02T21:23:34.295Z,103027.75
2023-04-02T21:26:06.253Z,103032.78
2023-04-02T21:28:34.205Z,103029.06
2023-04-02T21:31:04.983Z,103046.34
2023-04-02T21:33:35.231Z,103044.47
2023-04-02T21:36:28.214Z,103042.69
2023-04-02T21:38:57.618Z,103043.28
2023-04-02T21:41:32.876Z,103039.53
2023-04-02T21:44:01.048Z,103042.00
2023-04-02T21:46:29.789Z,103043.47
2023-04-02T21:48:58.709Z,103047.81
2023-04-02T21:51:31.281Z,103045.91
2023-04-02T21:53:58.556Z,103042.25
2023-04-02T21:56:30.869Z,103035.88
2023-04-02T21:58:58.571Z,103044.34
2023-04-02T22:01:28.166Z,103055.38
2023-04-02T22:03:56.501Z,103044.66
2023-04-02T22:06:24.789Z,103049.63
2023-04-02T22:09:00.281Z,103044.91
2023-04-02T22:11:29.737Z,103044.63
2023-04-02T22:13:57.760Z,103045.38
2023-04-02T22:16:27.370Z,103050.34
2023-04-02T22:18:56.508Z,103050.00
2023-04-02T22:21:23.143Z,103041.63
2023-04-02T22:23:50.040Z,103045.72
2023-04-02T22:26:19.294Z,103048.84
2023-04-02T22:28:48.770Z,103047.78
2023-04-02T22:31:18.174Z,103046.81
2023-04-02T22:33:45.773Z,103047.63
2023-04-02T22:36:13.953Z,103037.06
2023-04-02T22:38:40.856Z,103043.84
2023-04-02T22:41:13.045Z,103047.91
2023-04-02T22:43:40.595Z,103052.31
2023-04-02T22:46:08.738Z,103057.19
2023-04-02T22:48:36.107Z,103054.31
2023-04-02T22:51:03.171Z,103059.47
2023-04-02T22:53:29.668Z,103064.50
2023-04-02T22:56:01.821Z,103065.31
2023-04-02T22:58:28.269Z,103070.34
2023-04-02T23:00:54.664Z,103064.25
2023-04-02T23:03:21.414Z,103076.84
2023-04-02T23:05:58.544Z,103070.56
2023-04-02T23:08:24.957Z,103070.44
2023-04-02T23:10:51.378Z,103064.22
2023-04-02T23:13:17.777Z,103067.66
2023-04-02T23:15:44.522Z,103069.38
2023-04-02T23:18:10.940Z,103067.47
2023-04-02T23:20:37.649Z,103073.44
2023-04-02T23:23:04.777Z,103073.25
2023-04-02T23:25:31.351Z,103074.69
2023-04-02T23:27:57.764Z,103080.69
2023-04-02T23:30:24.173Z,103081.50
2023-04-02T23:32:50.800Z,103084.03
2023-04-02T23:35:17.227Z,103086.44
2023-04-02T23:37:43.634Z,103087.28
2023-04-02T23:40:10.358Z,103090.78
2023-04-02T23:42:36.768Z,103087.88
2023-04-02T23:45:03.306Z,103088.53
2023-04-02T23:47:29.737Z,103088.34
2023-04-02T23:49:56.374Z,103093.34
2023-04-02T23:52:22.815Z,103100.28
2023-04-02T23:54:49.252Z,103092.38
2023-04-02T23:57:17.219Z,103095.78
2023-04-02T23:59:43.637Z,103103.59
